7TA5 weather

Weber Ranch Airport
Caldwell, Texas, United States

Public forecast

Using degrees Fahrenheit for public forecast. Weather courtesy of forecast.io.

METAR (pilot weather report)

Closest report is Caldwell Municipal Airport, 5.6 nm (10.4 km) SW. Retrieved 2019/09/22 10:35 UTC (18 minutes ago):

KRWV 221035Z AUTO 00000KT 7SM BR SCT016 23/23 A3003 RMK AO2 T02300225

TAF (pilot weather forecast)

Closest forecast is Easterwood Field, 14.0 nm (25.9 km) E. Retrieved 2019/09/22 06:22 UTC (5 hours ago):

TAF KCLL 220520Z 2206/2306 15008KT P6SM SCT020 TEMPO 2214/2216 BKN025 FM221800 17010KT P6SM SCT040 SCT250 FM230200 15007KT P6SM FEW250